createdAt,value
2018-08-19T00:02:21.381Z,99.00
2018-08-19T00:05:15.936Z,98.90
2018-08-19T00:07:45.953Z,98.10
2018-08-19T00:10:15.471Z,97.30
2018-08-19T00:12:47.858Z,98.00
2018-08-19T00:15:17.311Z,98.90
2018-08-19T00:17:46.681Z,99.90
2018-08-19T00:20:16.077Z,98.40
2018-08-19T00:22:46.107Z,99.90
2018-08-19T00:25:30.900Z,99.90
2018-08-19T00:28:00.252Z,99.90
2018-08-19T00:30:31.835Z,99.90
2018-08-19T00:33:01.581Z,99.90
2018-08-19T00:35:31.725Z,99.90
2018-08-19T00:38:01.221Z,99.80
2018-08-19T00:40:30.925Z,99.80
2018-08-19T00:43:00.729Z,99.90
2018-08-19T00:45:30.223Z,99.80
2018-08-19T00:47:59.557Z,99.90
2018-08-19T00:50:29.026Z,99.90
2018-08-19T00:52:58.381Z,99.90
2018-08-19T00:55:31.789Z,99.90
2018-08-19T00:58:01.164Z,99.90
2018-08-19T01:00:30.603Z,99.90
2018-08-19T01:02:59.999Z,99.90
2018-08-19T01:05:29.393Z,99.90
2018-08-19T01:07:58.750Z,99.90
2018-08-19T01:10:28.232Z,99.90
2018-08-19T01:12:57.595Z,99.90
2018-08-19T01:15:27.008Z,99.90
2018-08-19T01:17:57.542Z,99.90
2018-08-19T01:20:26.916Z,99.90
2018-08-19T01:22:56.288Z,99.90
2018-08-19T01:25:25.733Z,99.90
2018-08-19T01:27:55.108Z,99.90
2018-08-19T01:30:26.344Z,99.90
2018-08-19T01:32:55.709Z,99.90
2018-08-19T01:35:30.312Z,99.90
2018-08-19T01:37:59.710Z,99.90
2018-08-19T01:40:29.136Z,99.90
2018-08-19T01:42:58.497Z,99.90
2018-08-19T01:45:27.924Z,99.90
2018-08-19T01:47:57.282Z,99.90
2018-08-19T01:50:26.741Z,99.90
2018-08-19T01:52:56.126Z,99.90
2018-08-19T01:55:25.560Z,99.90
2018-08-19T01:57:56.799Z,99.90
2018-08-19T02:00:26.185Z,99.90
2018-08-19T02:03:05.541Z,99.90
2018-08-19T02:05:34.901Z,99.90
2018-08-19T02:08:05.209Z,99.90
2018-08-19T02:10:35.520Z,99.90
2018-08-19T02:13:04.989Z,99.90
2018-08-19T02:15:34.372Z,99.90
2018-08-19T02:18:05.070Z,99.90
2018-08-19T02:20:38.129Z,99.90
2018-08-19T02:23:09.354Z,99.90
2018-08-19T02:25:42.370Z,99.90
2018-08-19T02:28:12.604Z,99.90
2018-08-19T02:30:51.624Z,99.90
2018-08-19T02:33:22.292Z,99.90
2018-08-19T02:35:55.777Z,99.90
2018-08-19T02:38:25.582Z,99.90
2018-08-19T02:40:55.237Z,99.90
2018-08-19T02:43:24.602Z,99.90
2018-08-19T02:45:54.032Z,99.90
2018-08-19T02:48:44.481Z,99.90
2018-08-19T02:51:15.820Z,99.90
2018-08-19T02:53:46.373Z,99.90
2018-08-19T02:56:16.373Z,99.90
2018-08-19T02:58:46.813Z,99.90
2018-08-19T03:01:17.115Z,99.90
2018-08-19T03:03:46.463Z,99.90
2018-08-19T03:06:15.803Z,99.90
2018-08-19T03:08:50.196Z,99.90
2018-08-19T03:11:21.521Z,99.90
2018-08-19T03:13:50.909Z,99.90
2018-08-19T03:16:20.247Z,99.90
2018-08-19T03:18:51.812Z,99.90
2018-08-19T03:21:22.175Z,99.90
2018-08-19T03:23:52.901Z,99.90
2018-08-19T03:26:22.230Z,99.90
2018-08-19T03:28:51.560Z,99.90
2018-08-19T03:31:20.888Z,99.90
2018-08-19T03:33:50.220Z,99.90
2018-08-19T03:36:19.564Z,99.90
2018-08-19T03:38:48.933Z,99.90
2018-08-19T03:41:18.288Z,99.90
2018-08-19T03:43:51.718Z,99.90
2018-08-19T03:46:21.546Z,99.90
2018-08-19T03:48:51.230Z,99.90
2018-08-19T03:51:20.577Z,99.90
2018-08-19T03:53:49.964Z,99.90
2018-08-19T03:56:24.670Z,99.90
2018-08-19T03:58:57.648Z,99.90
2018-08-19T04:01:43.057Z,99.90
2018-08-19T04:04:14.484Z,99.90
2018-08-19T04:06:44.237Z,99.90
2018-08-19T04:09:13.597Z,99.90
2018-08-19T04:11:43.016Z,99.90
2018-08-19T04:14:31.336Z,99.90
2018-08-19T04:17:01.769Z,99.90
2018-08-19T04:19:31.417Z,99.90
2018-08-19T04:22:02.827Z,99.90
2018-08-19T04:24:32.533Z,99.90
2018-08-19T04:27:09.068Z,99.90
2018-08-19T04:29:38.606Z,99.90
2018-08-19T04:32:19.452Z,99.90
2018-08-19T04:34:48.781Z,99.90
2018-08-19T04:37:18.238Z,99.90
2018-08-19T04:39:47.554Z,99.90
2018-08-19T04:42:16.931Z,99.90
2018-08-19T04:44:46.225Z,99.90
2018-08-19T04:47:28.745Z,99.90
2018-08-19T04:49:58.073Z,99.90
2018-08-19T04:52:27.448Z,99.90
2018-08-19T04:54:57.411Z,99.90
2018-08-19T04:57:26.859Z,99.90
2018-08-19T04:59:56.189Z,99.90
2018-08-19T05:02:25.548Z,99.90
2018-08-19T05:04:55.002Z,99.90
2018-08-19T05:07:24.280Z,99.90
2018-08-19T05:09:53.650Z,99.90
2018-08-19T05:12:22.971Z,99.90
2018-08-19T05:14:52.353Z,99.90
2018-08-19T05:17:21.685Z,99.90
2018-08-19T05:19:52.297Z,99.90
2018-08-19T05:22:21.646Z,99.90
2018-08-19T05:24:50.994Z,99.90
2018-08-19T05:27:20.321Z,99.90
2018-08-19T05:29:49.672Z,99.90
2018-08-19T05:32:19.010Z,99.90
2018-08-19T05:34:48.401Z,99.90
2018-08-19T05:37:17.750Z,99.90
2018-08-19T05:39:51.198Z,99.90
2018-08-19T05:42:20.484Z,99.90
2018-08-19T05:44:49.917Z,99.90
2018-08-19T05:47:19.293Z,99.90
2018-08-19T05:49:49.397Z,99.90
2018-08-19T05:52:19.826Z,99.90
2018-08-19T05:54:54.479Z,99.90
2018-08-19T05:57:23.861Z,99.90
2018-08-19T05:59:54.370Z,99.90
2018-08-19T06:02:30.942Z,99.90
2018-08-19T06:05:01.529Z,99.90
2018-08-19T06:07:31.132Z,99.90
2018-08-19T06:10:00.585Z,99.90
2018-08-19T06:12:30.000Z,99.90
2018-08-19T06:15:00.525Z,99.90
2018-08-19T06:17:29.969Z,99.90
2018-08-19T06:19:59.302Z,99.90
2018-08-19T06:22:39.078Z,99.90
2018-08-19T06:25:08.780Z,99.90
2018-08-19T06:27:43.918Z,99.90
2018-08-19T06:30:14.037Z,99.90
2018-08-19T06:32:43.512Z,99.90
2018-08-19T06:35:12.822Z,99.90
2018-08-19T06:37:42.279Z,99.90
2018-08-19T06:40:13.774Z,99.90
2018-08-19T06:42:43.137Z,99.90
2018-08-19T06:45:13.093Z,99.90
2018-08-19T06:47:42.605Z,99.90
2018-08-19T06:50:25.327Z,99.90
2018-08-19T06:52:55.551Z,99.90
2018-08-19T06:55:25.081Z,99.90
2018-08-19T06:57:59.108Z,99.90
2018-08-19T07:00:30.818Z,99.90
2018-08-19T07:03:04.225Z,99.90
2018-08-19T07:05:34.346Z,99.90
2018-08-19T07:08:03.820Z,99.90
2018-08-19T07:10:36.528Z,99.90
2018-08-19T07:13:08.725Z,99.90
2018-08-19T07:15:39.478Z,99.90
2018-08-19T07:18:11.259Z,99.90
2018-08-19T07:20:41.820Z,99.90
2018-08-19T07:23:11.713Z,99.90
2018-08-19T07:25:43.494Z,99.90
2018-08-19T07:28:14.618Z,99.90
2018-08-19T07:30:44.362Z,99.90
2018-08-19T07:33:14.257Z,99.90
2018-08-19T07:35:43.808Z,99.90
2018-08-19T07:38:13.162Z,99.90
2018-08-19T07:40:42.630Z,99.90
2018-08-19T07:43:11.998Z,99.70
2018-08-19T07:45:41.425Z,99.60
2018-08-19T07:48:10.805Z,99.40
2018-08-19T07:50:40.211Z,99.90
2018-08-19T07:53:09.556Z,99.90
2018-08-19T07:55:38.910Z,99.90
2018-08-19T07:58:08.270Z,99.90
2018-08-19T08:00:40.451Z,99.90
2018-08-19T08:03:10.362Z,99.90
2018-08-19T08:05:44.961Z,99.90
2018-08-19T08:08:14.322Z,99.90
2018-08-19T08:10:44.191Z,99.90
2018-08-19T08:13:14.005Z,99.90
2018-08-19T08:15:48.718Z,99.90
2018-08-19T08:18:18.120Z,99.90
2018-08-19T08:20:47.484Z,99.90
2018-08-19T08:23:24.127Z,99.60
2018-08-19T08:25:53.462Z,99.50
2018-08-19T08:28:22.864Z,99.20
2018-08-19T08:30:52.213Z,99.00
2018-08-19T08:33:21.728Z,98.90
2018-08-19T08:35:57.200Z,98.50
2018-08-19T08:38:26.775Z,98.20
2018-08-19T08:40:56.209Z,97.70
2018-08-19T08:43:25.565Z,97.80
2018-08-19T08:45:57.627Z,97.00
2018-08-19T08:48:27.354Z,97.40
2018-08-19T08:50:57.173Z,97.30
2018-08-19T08:53:34.557Z,96.90
2018-08-19T08:56:04.463Z,96.90
2018-08-19T08:58:34.385Z,97.00
2018-08-19T09:01:03.881Z,96.60
2018-08-19T09:03:33.341Z,96.00
2018-08-19T09:06:05.019Z,93.40
2018-08-19T09:08:35.887Z,92.20
2018-08-19T09:11:08.423Z,91.10
2018-08-19T09:13:38.592Z,93.00
2018-08-19T09:16:09.345Z,93.70
2018-08-19T09:18:40.702Z,90.60
2018-08-19T09:21:12.330Z,90.00
2018-08-19T09:23:43.337Z,91.80
2018-08-19T09:26:14.136Z,90.20
2018-08-19T09:28:44.414Z,84.10
2018-08-19T09:31:16.282Z,84.60
2018-08-19T09:33:50.642Z,86.60
2018-08-19T09:36:21.393Z,86.20
2018-08-19T09:38:51.365Z,85.40
2018-08-19T09:41:21.160Z,84.60
2018-08-19T09:43:51.037Z,85.20
2018-08-19T09:46:20.844Z,85.20
2018-08-19T09:48:50.638Z,84.40
2018-08-19T09:51:20.545Z,86.00
2018-08-19T09:53:50.511Z,85.40
2018-08-19T09:56:22.943Z,84.70
2018-08-19T09:58:57.926Z,84.10
2018-08-19T10:01:33.157Z,83.60
2018-08-19T10:04:08.099Z,85.10
2018-08-19T10:06:39.839Z,84.00
2018-08-19T10:09:10.500Z,37.90
2018-08-19T10:11:42.004Z,34.20
2018-08-19T10:21:42.123Z,23.70
2018-08-19T10:24:26.227Z,16.40
2018-08-19T10:26:57.078Z,12.80
2018-08-19T10:32:26.115Z,12.20
2018-08-19T10:35:05.284Z,11.30
2018-08-19T10:37:37.286Z,5.90
2018-08-19T10:40:07.115Z,8.30
2018-08-19T10:42:36.335Z,10.30
2018-08-19T10:45:12.851Z,3.70
2018-08-19T10:47:42.042Z,7.50
2018-08-19T10:50:11.277Z,1.70
2018-08-19T10:52:42.115Z,1.00
2018-08-19T10:55:12.481Z,1.00
2018-08-19T10:57:41.703Z,1.00
2018-08-19T11:00:15.390Z,1.00
2018-08-19T11:02:44.573Z,1.00
2018-08-19T11:05:13.739Z,1.00
2018-08-19T11:07:42.935Z,1.00
2018-08-19T11:10:19.284Z,1.00
2018-08-19T11:12:52.289Z,1.00
2018-08-19T11:15:46.710Z,1.00
2018-08-19T11:18:31.503Z,1.00
2018-08-19T11:21:04.689Z,1.00
2018-08-19T11:23:37.741Z,1.00
2018-08-19T11:26:08.082Z,1.00
2018-08-19T11:28:49.668Z,1.00
2018-08-19T11:31:25.287Z,1.00
2018-08-19T11:34:25.928Z,1.00
2018-08-19T11:36:55.276Z,1.00
2018-08-19T11:39:29.717Z,1.00
2018-08-19T11:41:59.809Z,1.00
2018-08-19T11:44:29.247Z,1.00
2018-08-19T11:46:58.590Z,1.00
2018-08-19T11:49:27.987Z,1.00
2018-08-19T11:52:01.826Z,1.00
2018-08-19T11:54:31.830Z,1.00
2018-08-19T11:57:06.825Z,1.00
2018-08-19T11:59:39.137Z,1.00
2018-08-19T12:02:11.089Z,1.00
2018-08-19T12:04:40.369Z,1.00
2018-08-19T12:07:09.752Z,1.00
2018-08-19T12:09:42.982Z,1.00
2018-08-19T12:12:12.386Z,1.00
2018-08-19T12:14:41.784Z,1.00
2018-08-19T12:17:12.651Z,1.00
2018-08-19T12:19:43.782Z,1.00
2018-08-19T12:22:13.220Z,1.00
2018-08-19T12:24:43.708Z,1.00
2018-08-19T12:27:14.504Z,1.00
2018-08-19T12:29:44.463Z,1.00
2018-08-19T12:32:22.876Z,1.00
2018-08-19T12:34:53.408Z,1.00
2018-08-19T12:37:23.987Z,1.00
2018-08-19T12:39:53.859Z,1.00
2018-08-19T12:42:23.362Z,1.00
2018-08-19T12:45:14.527Z,1.00
2018-08-19T12:47:43.858Z,1.00
2018-08-19T12:50:15.561Z,1.00
2018-08-19T12:52:45.033Z,1.00
2018-08-19T12:55:16.083Z,1.00
2018-08-19T12:57:45.799Z,1.00
2018-08-19T13:00:19.385Z,1.00
2018-08-19T13:02:50.612Z,1.00
2018-08-19T13:05:20.540Z,1.00
2018-08-19T13:07:49.922Z,1.00
2018-08-19T13:10:19.452Z,1.00
2018-08-19T13:12:54.045Z,1.00
2018-08-19T13:15:24.922Z,1.00
2018-08-19T13:17:54.263Z,1.00
2018-08-19T13:20:23.694Z,1.00
2018-08-19T13:22:58.352Z,1.00
2018-08-19T13:25:27.837Z,1.00
2018-08-19T13:27:57.188Z,1.00
2018-08-19T13:30:26.495Z,1.00
2018-08-19T13:32:55.888Z,1.00
2018-08-19T13:35:25.208Z,1.00
2018-08-19T13:37:54.596Z,1.00
2018-08-19T13:40:23.925Z,1.00
2018-08-19T13:42:53.245Z,1.00
2018-08-19T13:45:23.350Z,1.00
2018-08-19T13:47:54.105Z,1.00
2018-08-19T13:50:23.469Z,1.00
2018-08-19T13:52:52.863Z,1.00
2018-08-19T13:55:22.232Z,1.00
2018-08-19T13:57:51.680Z,1.00
2018-08-19T14:00:23.001Z,1.00
2018-08-19T14:02:52.680Z,1.00
2018-08-19T14:05:22.045Z,1.00
2018-08-19T14:07:51.446Z,1.00
2018-08-19T14:10:20.880Z,1.00
2018-08-19T14:12:50.252Z,1.00
2018-08-19T14:15:19.604Z,1.00
2018-08-19T14:17:49.036Z,1.00
2018-08-19T14:20:18.390Z,1.00
2018-08-19T14:22:47.765Z,1.00
2018-08-19T14:25:17.120Z,1.00
2018-08-19T14:27:46.579Z,1.00
2018-08-19T14:30:16.021Z,1.00
2018-08-19T14:32:46.530Z,1.00
2018-08-19T14:35:15.906Z,1.00
2018-08-19T14:37:45.301Z,1.00
2018-08-19T14:40:18.678Z,1.00
2018-08-19T14:42:48.036Z,1.00
2018-08-19T14:45:17.364Z,1.00
2018-08-19T14:47:46.784Z,1.00
2018-08-19T14:50:18.714Z,1.00
2018-08-19T14:52:48.220Z,1.00
2018-08-19T14:55:17.540Z,1.00
2018-08-19T14:57:46.949Z,1.00
2018-08-19T15:00:17.536Z,1.00
2018-08-19T15:02:46.932Z,1.00
2018-08-19T15:05:19.564Z,1.00
2018-08-19T15:07:49.344Z,1.00
2018-08-19T15:10:25.023Z,1.00
2018-08-19T15:12:54.605Z,1.00
2018-08-19T15:15:24.020Z,1.00
2018-08-19T15:17:58.617Z,1.00
2018-08-19T15:20:33.307Z,1.00
2018-08-19T15:23:21.807Z,1.00
2018-08-19T15:25:51.178Z,1.00
2018-08-19T15:28:20.525Z,1.00
2018-08-19T15:30:49.846Z,1.00
2018-08-19T15:33:19.876Z,1.00
2018-08-19T15:35:49.195Z,1.00
2018-08-19T15:38:18.576Z,1.00
2018-08-19T15:40:49.516Z,1.00
2018-08-19T15:43:18.904Z,1.00
2018-08-19T15:45:48.339Z,1.00
2018-08-19T15:48:17.738Z,1.00
2018-08-19T15:50:47.109Z,1.00
2018-08-19T15:53:18.598Z,1.00
2018-08-19T15:55:48.095Z,1.00
2018-08-19T15:58:17.504Z,1.00
2018-08-19T16:00:46.845Z,1.00
2018-08-19T16:03:16.328Z,1.00
2018-08-19T16:05:45.678Z,1.00
2018-08-19T16:08:15.133Z,1.00
2018-08-19T16:10:44.510Z,1.00
2018-08-19T16:13:13.913Z,1.00
2018-08-19T16:15:43.273Z,1.00
2018-08-19T16:18:12.729Z,1.00
2018-08-19T16:20:49.220Z,1.00
2018-08-19T16:23:18.628Z,1.00
2018-08-19T16:25:48.097Z,1.00
2018-08-19T16:28:17.481Z,1.00
2018-08-19T16:30:46.883Z,1.00
2018-08-19T16:33:16.231Z,1.00
2018-08-19T16:35:45.711Z,1.00
2018-08-19T16:38:15.066Z,1.00
2018-08-19T16:40:44.521Z,1.00
2018-08-19T16:43:13.893Z,1.00
2018-08-19T16:45:43.317Z,1.00
2018-08-19T16:48:12.749Z,1.00
2018-08-19T16:50:42.262Z,1.00
2018-08-19T16:53:11.509Z,1.00
2018-08-19T16:55:40.921Z,1.00
2018-08-19T16:58:10.239Z,1.00
2018-08-19T17:00:39.760Z,1.00
2018-08-19T17:03:30.027Z,1.00
2018-08-19T17:05:59.336Z,1.00
2018-08-19T17:08:28.857Z,1.00
2018-08-19T17:10:58.289Z,1.00
2018-08-19T17:13:27.589Z,1.00
2018-08-19T17:15:56.910Z,1.00
2018-08-19T17:18:26.278Z,1.00
2018-08-19T17:20:55.629Z,1.00
2018-08-19T17:23:25.557Z,1.00
2018-08-19T17:25:54.885Z,1.00
2018-08-19T17:28:25.524Z,1.00
2018-08-19T17:30:55.449Z,1.00
2018-08-19T17:33:28.154Z,1.00
2018-08-19T17:35:57.499Z,1.00
2018-08-19T17:38:33.235Z,1.00
2018-08-19T17:41:02.985Z,1.00
2018-08-19T17:43:37.615Z,1.00
2018-08-19T17:46:12.592Z,1.00
2018-08-19T17:48:42.870Z,1.00
2018-08-19T17:51:27.394Z,1.00
2018-08-19T17:53:56.773Z,1.00
2018-08-19T17:56:26.156Z,1.00
2018-08-19T17:58:55.544Z,1.00
2018-08-19T18:01:25.006Z,1.00
2018-08-19T18:03:54.324Z,1.00
2018-08-19T18:06:23.824Z,1.00
2018-08-19T18:08:53.851Z,1.00
2018-08-19T18:11:23.377Z,1.00
2018-08-19T18:13:52.717Z,1.00
2018-08-19T18:16:22.133Z,1.00
2018-08-19T18:18:51.560Z,1.00
2018-08-19T18:21:20.932Z,1.00
2018-08-19T18:23:50.292Z,1.00
2018-08-19T18:26:19.724Z,1.00
2018-08-19T18:28:49.389Z,1.00
2018-08-19T18:31:21.593Z,1.00
2018-08-19T18:33:56.286Z,1.00
2018-08-19T18:36:26.718Z,1.00
2018-08-19T18:38:56.652Z,1.00
2018-08-19T18:41:31.355Z,1.00
2018-08-19T18:44:02.854Z,1.00
2018-08-19T18:46:32.827Z,1.00
2018-08-19T18:49:20.444Z,1.00
2018-08-19T18:51:52.156Z,1.00
2018-08-19T18:54:29.822Z,5.60
2018-08-19T18:57:06.445Z,1.00
2018-08-19T18:59:35.881Z,1.00
2018-08-19T19:02:05.394Z,1.00
2018-08-19T19:04:34.710Z,1.00
2018-08-19T19:07:04.117Z,1.00
2018-08-19T19:09:42.092Z,1.00
2018-08-19T19:12:11.469Z,2.50
2018-08-19T19:14:40.845Z,1.00
2018-08-19T19:17:10.325Z,7.20
2018-08-19T19:19:43.733Z,5.40
2018-08-19T19:22:13.089Z,10.80
2018-08-19T19:24:42.701Z,15.80
2018-08-19T19:27:12.251Z,17.00
2018-08-19T19:29:43.503Z,16.60
2018-08-19T19:32:23.266Z,17.20
2018-08-19T19:34:52.769Z,18.90
2018-08-19T19:37:22.423Z,19.60
2018-08-19T19:39:56.628Z,17.20
2018-08-19T19:42:26.040Z,19.90
2018-08-19T19:44:55.410Z,26.10
2018-08-19T19:47:24.814Z,34.80
2018-08-19T19:49:57.785Z,31.40
2018-08-19T19:52:27.540Z,30.60
2018-08-19T19:54:57.162Z,31.60
2018-08-19T19:57:26.493Z,37.80
2018-08-19T19:59:55.840Z,46.70
2018-08-19T20:02:31.289Z,44.70
2018-08-19T20:05:01.209Z,42.60
2018-08-19T20:07:30.661Z,51.50
2018-08-19T20:10:00.074Z,53.10
2018-08-19T20:12:30.168Z,58.60
2018-08-19T20:15:01.442Z,57.70
2018-08-19T20:17:30.829Z,51.80
2018-08-19T20:20:00.300Z,71.50
2018-08-19T20:22:29.729Z,86.00
2018-08-19T20:24:59.058Z,98.70
2018-08-19T20:27:28.420Z,99.90
2018-08-19T20:29:57.752Z,99.90
2018-08-19T20:32:27.165Z,99.90
2018-08-19T20:34:56.489Z,99.90
2018-08-19T20:37:27.929Z,99.90
2018-08-19T20:39:57.293Z,99.90
2018-08-19T20:42:26.670Z,99.90
2018-08-19T20:44:56.021Z,99.90
2018-08-19T20:47:25.399Z,99.90
2018-08-19T20:49:54.741Z,99.90
2018-08-19T20:52:46.098Z,99.90
2018-08-19T20:55:15.885Z,99.90
2018-08-19T20:57:45.696Z,99.90
2018-08-19T21:00:15.061Z,99.90
2018-08-19T21:02:44.493Z,99.90
2018-08-19T21:05:13.854Z,99.90
2018-08-19T21:07:44.949Z,99.90
2018-08-19T21:10:14.318Z,99.90
2018-08-19T21:12:43.701Z,99.90
2018-08-19T21:15:13.089Z,99.90
2018-08-19T21:17:42.502Z,99.90
2018-08-19T21:20:11.860Z,99.90
2018-08-19T21:22:41.226Z,99.90
2018-08-19T21:25:10.616Z,99.90
2018-08-19T21:27:40.124Z,99.90
2018-08-19T21:30:09.615Z,99.90
2018-08-19T21:32:39.048Z,99.90
2018-08-19T21:35:09.251Z,99.90
2018-08-19T21:37:38.645Z,99.90
2018-08-19T21:40:08.045Z,99.90
2018-08-19T21:42:51.771Z,99.90
2018-08-19T21:45:21.385Z,99.90
2018-08-19T21:47:50.785Z,99.90
2018-08-19T21:50:20.121Z,99.90
2018-08-19T21:53:06.087Z,99.90
2018-08-19T21:55:37.596Z,99.90
2018-08-19T21:58:07.664Z,99.90
2018-08-19T22:00:39.304Z,99.90
2018-08-19T22:03:17.765Z,99.90
2018-08-19T22:05:47.904Z,99.90
2018-08-19T22:08:17.545Z,99.90
2018-08-19T22:10:48.165Z,99.90
2018-08-19T22:13:17.529Z,99.90
2018-08-19T22:15:47.593Z,99.90
2018-08-19T22:18:22.527Z,99.90
2018-08-19T22:21:10.519Z,99.90
2018-08-19T22:23:43.512Z,99.90
2018-08-19T22:26:14.161Z,99.90
2018-08-19T22:28:43.850Z,99.90
2018-08-19T22:31:26.153Z,99.90
2018-08-19T22:33:56.788Z,99.90
2018-08-19T22:36:26.509Z,99.90
2018-08-19T22:38:56.720Z,99.90
2018-08-19T22:41:27.665Z,99.90
2018-08-19T22:43:57.469Z,99.90
2018-08-19T22:46:27.502Z,99.90
2018-08-19T22:48:57.508Z,99.90
2018-08-19T22:51:32.545Z,99.90
2018-08-19T22:54:01.887Z,99.90
2018-08-19T22:56:31.238Z,99.90
2018-08-19T22:59:00.596Z,99.90
2018-08-19T23:01:35.104Z,99.90
2018-08-19T23:04:04.793Z,99.90
2018-08-19T23:06:34.592Z,99.90
2018-08-19T23:09:04.939Z,99.90
2018-08-19T23:11:39.625Z,99.90
2018-08-19T23:14:26.117Z,99.90
2018-08-19T23:16:55.604Z,99.90
2018-08-19T23:19:25.000Z,99.90
2018-08-19T23:21:54.352Z,99.90
2018-08-19T23:24:23.717Z,99.90
2018-08-19T23:26:53.056Z,99.90
2018-08-19T23:29:22.512Z,99.90
2018-08-19T23:31:51.866Z,99.90
2018-08-19T23:34:21.321Z,99.90
2018-08-19T23:36:50.672Z,99.90
2018-08-19T23:39:20.127Z,99.90
2018-08-19T23:41:49.509Z,99.90
2018-08-19T23:44:18.937Z,99.90
2018-08-19T23:46:48.281Z,99.90
2018-08-19T23:49:17.736Z,99.90
2018-08-19T23:51:47.054Z,99.90
2018-08-19T23:54:16.401Z,99.90
2018-08-19T23:56:45.729Z,99.90
2018-08-19T23:59:21.237Z,99.90
